Time;durP1;ratioP1;P1;durP2;ratioP2;P2;SDS_P1;SDS_P2;PMS_P1;PMS_P2;Temp;Humidity;BMP_temperature;BMP_pressure;BME280_temperature;BME280_humidity;BME280_pressure;Samples;Min_cycle;Max_cycle;Signal;HPM_P1;HPM_P2
2022/01/09 00:00:19;;;;;;;;;;;22.10;47.30;;;;;;5116949;28;19923;-42
2022/01/09 00:02:46;;;;;;;;;;;22.10;47.30;;;;;;5136018;27;19923;-42
2022/01/09 00:05:13;;;;;;;;;;;22.10;47.30;;;;;;5118766;27;20352;-41
2022/01/09 00:07:40;;;;;;;;;;;22.10;47.30;;;;;;5098306;28;20287;-41
2022/01/09 00:10:08;;;;;;;;;;;22.10;47.30;;;;;;5119119;27;20329;-40
2022/01/09 00:12:35;;;;;;;;;;;22.10;47.30;;;;;;5116142;28;19978;-40
2022/01/09 00:15:02;;;;;;;;;;;22.10;47.30;;;;;;5117666;27;19969;-40
2022/01/09 00:17:29;;;;;;;;;;;22.10;47.30;;;;;;5118600;27;19924;-40
2022/01/09 00:19:56;;;;;;;;;;;22.10;47.30;;;;;;5101259;28;19960;-42
2022/01/09 00:22:36;;;;;;;;;;;22.10;47.30;;;;;;5098070;28;20372;-41
2022/01/09 00:25:11;;;;;;;;;;;22.10;47.30;;;;;;5097100;28;20011;-40
2022/01/09 00:27:38;;;;;;;;;;;22.10;47.30;;;;;;5096864;28;19971;-42
2022/01/09 00:30:07;;;;;;;;;;;22.10;47.30;;;;;;5098239;28;19964;-41
2022/01/09 00:32:34;;;;;;;;;;;22.10;47.30;;;;;;5098075;28;19924;-41
2022/01/09 00:35:02;;;;;;;;;;;22.10;47.30;;;;;;5096621;28;19971;-42
2022/01/09 00:37:29;;;;;;;;;;;22.10;47.30;;;;;;5096623;28;19924;-42
2022/01/09 00:39:56;;;;;;;;;;;22.10;47.30;;;;;;5096668;28;19924;-40
2022/01/09 00:42:23;;;;;;;;;;;22.10;47.30;;;;;;5098083;28;19928;-39
2022/01/09 00:44:50;;;;;;;;;;;22.10;47.30;;;;;;5096197;28;19924;-42
2022/01/09 00:47:17;;;;;;;;;;;22.10;47.30;;;;;;5095325;28;20011;-41
2022/01/09 00:49:44;;;;;;;;;;;22.10;47.30;;;;;;5095935;28;19977;-40
2022/01/09 00:52:11;;;;;;;;;;;22.10;47.30;;;;;;5099113;28;19960;-41
2022/01/09 00:54:38;;;;;;;;;;;22.00;47.20;;;;;;5113213;28;19931;-41
2022/01/09 00:57:05;;;;;;;;;;;22.10;47.30;;;;;;5113474;28;19924;-43
2022/01/09 00:59:32;;;;;;;;;;;22.00;47.20;;;;;;5096579;28;19928;-42
2022/01/09 01:01:59;;;;;;;;;;;22.10;47.30;;;;;;5114404;28;19973;-41
2022/01/09 01:04:27;;;;;;;;;;;22.00;47.20;;;;;;5094938;28;19928;-41
2022/01/09 01:06:54;;;;;;;;;;;22.00;47.20;;;;;;5095207;28;20326;-42
2022/01/09 01:09:23;;;;;;;;;;;22.10;47.30;;;;;;5095651;28;19932;-42
2022/01/09 01:11:50;;;;;;;;;;;22.10;47.30;;;;;;5096452;28;19973;-41
2022/01/09 01:14:22;;;;;;;;;;;22.10;47.30;;;;;;5076778;28;19924;-43
2022/01/09 01:16:49;;;;;;;;;;;22.00;47.20;;;;;;5097310;28;19986;-43
2022/01/09 01:19:17;;;;;;;;;;;22.00;47.20;;;;;;5088117;28;19924;-41
2022/01/09 01:21:44;;;;;;;;;;;22.10;47.30;;;;;;5115125;28;19924;-42
2022/01/09 01:24:11;;;;;;;;;;;22.00;47.20;;;;;;5115917;27;19928;-42
2022/01/09 01:26:38;;;;;;;;;;;22.00;47.20;;;;;;5117545;27;19963;-42
2022/01/09 01:29:05;;;;;;;;;;;22.00;47.20;;;;;;5099455;28;19959;-43
2022/01/09 01:31:32;;;;;;;;;;;22.00;47.10;;;;;;5116414;27;19986;-41
2022/01/09 01:33:59;;;;;;;;;;;22.00;47.20;;;;;;5104725;27;19984;-42
2022/01/09 01:36:26;;;;;;;;;;;22.00;47.10;;;;;;5125619;27;19931;-43
2022/01/09 01:38:53;;;;;;;;;;;22.00;47.20;;;;;;5114716;28;19985;-42
2022/01/09 01:41:20;;;;;;;;;;;22.00;47.10;;;;;;5119422;27;19931;-42
2022/01/09 01:43:47;;;;;;;;;;;22.00;47.10;;;;;;5130100;27;19924;-42
2022/01/09 01:46:14;;;;;;;;;;;22.00;47.10;;;;;;5114768;27;19931;-43
2022/01/09 01:48:41;;;;;;;;;;;22.00;47.10;;;;;;5114618;28;19955;-42
2022/01/09 01:51:08;;;;;;;;;;;22.10;47.20;;;;;;5115691;27;19969;-42
2022/01/09 01:53:35;;;;;;;;;;;22.00;47.10;;;;;;5115185;27;19974;-42
2022/01/09 01:56:02;;;;;;;;;;;22.00;47.10;;;;;;5115567;27;20014;-42
2022/01/09 01:58:34;;;;;;;;;;;22.00;47.10;;;;;;5116538;27;19924;-42
2022/01/09 02:01:02;;;;;;;;;;;22.00;47.10;;;;;;5115892;27;20310;-41
2022/01/09 02:03:29;;;;;;;;;;;22.00;47.10;;;;;;5114782;27;19928;-46
2022/01/09 02:05:56;;;;;;;;;;;22.00;47.10;;;;;;5115384;27;20426;-43
2022/01/09 02:08:23;;;;;;;;;;;22.00;47.10;;;;;;5115236;27;20425;-43
2022/01/09 02:10:50;;;;;;;;;;;22.00;47.10;;;;;;5114409;28;19923;-47
2022/01/09 02:13:19;;;;;;;;;;;22.00;47.10;;;;;;5114967;27;20406;-52
2022/01/09 02:15:46;;;;;;;;;;;22.00;47.10;;;;;;5115102;27;20023;-45
2022/01/09 02:18:15;;;;;;;;;;;22.00;47.10;;;;;;5114704;27;19928;-48
2022/01/09 02:20:43;;;;;;;;;;;22.00;47.10;;;;;;5115030;27;19971;-52
2022/01/09 02:23:10;;;;;;;;;;;22.00;47.10;;;;;;5114627;27;20010;-51
2022/01/09 02:25:38;;;;;;;;;;;22.00;47.10;;;;;;5115674;27;20345;-47
2022/01/09 02:28:05;;;;;;;;;;;22.00;47.10;;;;;;5113530;28;20015;-50
2022/01/09 02:30:33;;;;;;;;;;;22.00;47.10;;;;;;5115970;27;20724;-49
2022/01/09 02:33:00;;;;;;;;;;;22.00;47.10;;;;;;5114907;28;19923;-47
2022/01/09 02:35:27;;;;;;;;;;;22.00;47.10;;;;;;5121827;27;19966;-44
2022/01/09 02:37:54;;;;;;;;;;;22.00;47.10;;;;;;5125842;27;20371;-43
2022/01/09 02:40:22;;;;;;;;;;;22.00;47.10;;;;;;5117101;27;20003;-47
2022/01/09 02:42:50;;;;;;;;;;;22.00;47.10;;;;;;5119027;27;19927;-44
2022/01/09 02:45:22;;;;;;;;;;;22.00;47.10;;;;;;5110463;28;20466;-44
2022/01/09 02:47:50;;;;;;;;;;;22.00;47.70;;;;;;5114843;27;19924;-43
2022/01/09 02:52:57;;;;;;;;;;;22.00;47.10;;;;;;5114505;28;19976;-42
2022/01/09 02:55:25;;;;;;;;;;;22.00;47.10;;;;;;5113561;28;19970;-42
2022/01/09 02:57:57;;;;;;;;;;;22.00;47.10;;;;;;5114427;28;19923;-45
2022/01/09 03:00:25;;;;;;;;;;;21.90;47.10;;;;;;5114513;28;20318;-42
2022/01/09 03:02:52;;;;;;;;;;;22.00;47.10;;;;;;5113095;28;20410;-41
2022/01/09 03:05:20;;;;;;;;;;;21.90;47.00;;;;;;5115947;28;19924;-43
2022/01/09 03:07:47;;;;;;;;;;;21.90;47.10;;;;;;5131761;28;19976;-42
2022/01/09 03:10:16;;;;;;;;;;;21.90;47.10;;;;;;5113531;28;19924;-43
2022/01/09 03:12:45;;;;;;;;;;;21.90;47.10;;;;;;5132350;28;19924;-39
2022/01/09 03:15:14;;;;;;;;;;;21.90;47.10;;;;;;5132669;28;19959;-45
2022/01/09 03:17:46;;;;;;;;;;;21.90;47.10;;;;;;5114150;28;20286;-44
2022/01/09 03:20:20;;;;;;;;;;;21.90;47.10;;;;;;5118318;27;19924;-41
2022/01/09 03:22:54;;;;;;;;;;;21.90;47.10;;;;;;5116780;28;19985;-41
2022/01/09 03:25:26;;;;;;;;;;;21.90;47.10;;;;;;5124637;27;20337;-42
2022/01/09 03:27:57;;;;;;;;;;;21.90;47.10;;;;;;5116896;28;20378;-44
2022/01/09 03:30:25;;;;;;;;;;;21.90;47.10;;;;;;5135191;27;19924;-40
2022/01/09 03:32:54;;;;;;;;;;;21.90;47.10;;;;;;5120249;27;19934;-42
2022/01/09 03:35:23;;;;;;;;;;;21.90;47.10;;;;;;5118010;27;19932;-46
2022/01/09 03:37:52;;;;;;;;;;;21.90;47.10;;;;;;5117006;28;19927;-44
2022/01/09 03:40:25;;;;;;;;;;;21.90;47.10;;;;;;5117328;27;19924;-40
2022/01/09 03:42:56;;;;;;;;;;;21.90;47.10;;;;;;5118981;27;19933;-40
2022/01/09 03:45:28;;;;;;;;;;;21.90;47.10;;;;;;5117895;27;19934;-40
2022/01/09 03:47:58;;;;;;;;;;;21.90;47.10;;;;;;5116635;28;20363;-40
2022/01/09 03:50:29;;;;;;;;;;;21.90;47.10;;;;;;5128203;27;19923;-40
2022/01/09 03:52:59;;;;;;;;;;;21.90;47.10;;;;;;5121800;27;20325;-40
2022/01/09 03:55:27;;;;;;;;;;;21.90;47.10;;;;;;5116456;28;19963;-40
2022/01/09 03:57:54;;;;;;;;;;;21.90;47.00;;;;;;5119051;27;19930;-42
2022/01/09 04:00:22;;;;;;;;;;;21.90;47.10;;;;;;5119254;27;19999;-41
2022/01/09 04:02:50;;;;;;;;;;;21.90;47.10;;;;;;5117650;27;20371;-41
2022/01/09 04:05:18;;;;;;;;;;;21.80;47.00;;;;;;5116309;28;20375;-42
2022/01/09 04:07:45;;;;;;;;;;;21.80;47.00;;;;;;5116694;28;19968;-42
2022/01/09 04:10:20;;;;;;;;;;;21.80;47.00;;;;;;5119096;27;19928;-42
2022/01/09 04:12:50;;;;;;;;;;;21.80;47.00;;;;;;5117372;27;19924;-40
2022/01/09 04:15:18;;;;;;;;;;;21.90;47.10;;;;;;5119064;27;19963;-42
2022/01/09 04:17:58;;;;;;;;;;;21.80;47.10;;;;;;5116039;28;19963;-42
2022/01/09 04:20:29;;;;;;;;;;;21.80;47.00;;;;;;5116116;28;19924;-41
2022/01/09 04:22:56;;;;;;;;;;;21.80;47.00;;;;;;5117220;27;20005;-41
2022/01/09 04:25:23;;;;;;;;;;;21.80;47.00;;;;;;5116520;27;20011;-41
2022/01/09 04:27:50;;;;;;;;;;;21.80;47.00;;;;;;5117337;27;20002;-42
2022/01/09 04:30:18;;;;;;;;;;;21.80;47.10;;;;;;5118106;27;19930;-40
2022/01/09 04:32:45;;;;;;;;;;;21.80;47.00;;;;;;5117013;27;19967;-40
2022/01/09 04:35:13;;;;;;;;;;;21.80;47.00;;;;;;5116402;27;19960;-40
2022/01/09 04:37:40;;;;;;;;;;;21.80;47.00;;;;;;5117958;27;19927;-41
2022/01/09 04:40:09;;;;;;;;;;;21.80;47.10;;;;;;5116410;28;20018;-40
2022/01/09 04:42:49;;;;;;;;;;;21.80;47.00;;;;;;5115843;28;19974;-40
2022/01/09 04:45:18;;;;;;;;;;;21.80;47.00;;;;;;5117237;27;20314;-45
2022/01/09 04:47:47;;;;;;;;;;;21.80;47.00;;;;;;5116055;27;20379;-41
2022/01/09 04:50:23;;;;;;;;;;;21.80;47.00;;;;;;5117003;27;20019;-41
2022/01/09 04:52:57;;;;;;;;;;;21.80;47.00;;;;;;5115337;28;20391;-41
2022/01/09 04:55:25;;;;;;;;;;;21.80;47.00;;;;;;5098439;27;19924;-43
2022/01/09 04:57:52;;;;;;;;;;;21.80;47.00;;;;;;5116548;27;20125;-45
2022/01/09 05:00:19;;;;;;;;;;;21.80;47.00;;;;;;5131763;27;20349;-44
2022/01/09 05:02:46;;;;;;;;;;;21.80;47.00;;;;;;5116906;27;19969;-43
2022/01/09 05:05:14;;;;;;;;;;;21.80;47.00;;;;;;5116557;27;19923;-45
2022/01/09 05:07:42;;;;;;;;;;;21.80;47.00;;;;;;5130457;27;19924;-43
2022/01/09 05:10:09;;;;;;;;;;;21.80;47.00;;;;;;5133261;27;19927;-41
2022/01/09 05:12:36;;;;;;;;;;;21.80;47.00;;;;;;5135705;27;20002;-49
2022/01/09 05:15:04;;;;;;;;;;;21.80;47.00;;;;;;5122613;27;20446;-50
2022/01/09 05:17:31;;;;;;;;;;;21.80;47.00;;;;;;5116290;27;19923;-51
2022/01/09 05:19:58;;;;;;;;;;;21.80;47.00;;;;;;5117242;27;19924;-46
2022/01/09 05:22:25;;;;;;;;;;;21.80;47.00;;;;;;5125365;27;20285;-47
2022/01/09 05:24:55;;;;;;;;;;;21.80;47.00;;;;;;5126004;27;20387;-47
2022/01/09 05:27:26;;;;;;;;;;;21.80;47.00;;;;;;5117197;27;19934;-51
2022/01/09 05:29:53;;;;;;;;;;;21.80;47.00;;;;;;5114870;28;19946;-44
2022/01/09 05:32:20;;;;;;;;;;;21.70;47.00;;;;;;5117622;27;20007;-44
2022/01/09 05:34:46;;;;;;;;;;;21.70;46.90;;;;;;5116875;27;20006;-43
2022/01/09 05:37:13;;;;;;;;;;;21.70;47.00;;;;;;5114608;28;19932;-42
2022/01/09 05:39:40;;;;;;;;;;;21.70;47.00;;;;;;5114555;28;20081;-46
2022/01/09 05:42:08;;;;;;;;;;;21.70;47.00;;;;;;5116623;27;19976;-41
2022/01/09 05:44:36;;;;;;;;;;;21.70;46.90;;;;;;5115896;27;19944;-42
2022/01/09 05:47:03;;;;;;;;;;;21.80;47.00;;;;;;5115727;27;19970;-43
2022/01/09 05:49:30;;;;;;;;;;;21.70;46.90;;;;;;5116026;27;19924;-42
2022/01/09 05:51:57;;;;;;;;;;;21.70;47.00;;;;;;5114899;27;20395;-45
2022/01/09 05:54:24;;;;;;;;;;;21.70;46.90;;;;;;5114686;28;20349;-43
2022/01/09 05:56:54;;;;;;;;;;;21.70;46.90;;;;;;5115907;27;19930;-42
2022/01/09 05:59:21;;;;;;;;;;;21.70;47.00;;;;;;5115862;27;19989;-41
2022/01/09 06:01:48;;;;;;;;;;;21.70;47.00;;;;;;5115561;27;19923;-42
2022/01/09 06:04:14;;;;;;;;;;;21.70;47.00;;;;;;5114123;28;19928;-40
2022/01/09 06:06:41;;;;;;;;;;;21.70;46.90;;;;;;5115415;27;20256;-40
2022/01/09 06:09:10;;;;;;;;;;;21.70;47.00;;;;;;5114249;28;19961;-43
2022/01/09 06:11:37;;;;;;;;;;;21.70;47.00;;;;;;5115182;27;20014;-42
2022/01/09 06:14:03;;;;;;;;;;;21.70;47.00;;;;;;5115203;27;19978;-40
2022/01/09 06:16:30;;;;;;;;;;;21.70;47.00;;;;;;5115287;28;19974;-41
2022/01/09 06:18:57;;;;;;;;;;;21.70;47.00;;;;;;5105698;27;19999;-43
2022/01/09 06:21:27;;;;;;;;;;;21.70;47.00;;;;;;5093429;28;19924;-41
2022/01/09 06:23:54;;;;;;;;;;;21.70;47.00;;;;;;5093340;28;20007;-40
2022/01/09 06:26:21;;;;;;;;;;;21.70;47.00;;;;;;5095867;28;19978;-41
2022/01/09 06:28:48;;;;;;;;;;;21.70;47.00;;;;;;5099437;28;19930;-41
2022/01/09 06:31:15;;;;;;;;;;;21.70;46.90;;;;;;5108451;28;19931;-40
2022/01/09 06:33:42;;;;;;;;;;;21.70;46.90;;;;;;5094370;28;19961;-41
2022/01/09 06:36:09;;;;;;;;;;;21.70;46.90;;;;;;5094579;28;19924;-42
2022/01/09 06:38:37;;;;;;;;;;;21.70;47.00;;;;;;5093413;28;19924;-41
2022/01/09 06:41:04;;;;;;;;;;;21.70;46.90;;;;;;5093089;28;19977;-40
2022/01/09 06:43:31;;;;;;;;;;;21.70;46.90;;;;;;5095702;28;19932;-42
2022/01/09 06:45:58;;;;;;;;;;;21.70;47.00;;;;;;5094924;28;19967;-40
2022/01/09 06:48:26;;;;;;;;;;;21.70;47.00;;;;;;5095511;28;20007;-41
2022/01/09 06:50:53;;;;;;;;;;;21.70;46.90;;;;;;5093518;28;19924;-42
2022/01/09 06:53:20;;;;;;;;;;;21.70;46.90;;;;;;5092276;28;19931;-40
2022/01/09 06:55:47;;;;;;;;;;;21.70;47.00;;;;;;5094306;28;19966;-41
2022/01/09 06:58:14;;;;;;;;;;;21.70;47.00;;;;;;5094009;28;19928;-41
2022/01/09 07:00:41;;;;;;;;;;;21.70;46.90;;;;;;5106686;28;19974;-42
2022/01/09 07:03:08;;;;;;;;;;;21.70;46.90;;;;;;5096605;28;19924;-40
2022/01/09 07:05:35;;;;;;;;;;;21.70;46.90;;;;;;5104974;28;19930;-41
2022/01/09 07:08:02;;;;;;;;;;;21.70;46.90;;;;;;5099424;28;19980;-41
2022/01/09 07:10:29;;;;;;;;;;;21.70;46.90;;;;;;5093193;28;20090;-40
2022/01/09 07:12:56;;;;;;;;;;;21.60;46.90;;;;;;5094119;28;19930;-40
2022/01/09 07:15:23;;;;;;;;;;;21.70;46.90;;;;;;5093319;28;19928;-40
2022/01/09 07:17:50;;;;;;;;;;;21.70;46.90;;;;;;5092800;28;19981;-40
2022/01/09 07:20:17;;;;;;;;;;;21.70;46.90;;;;;;5119655;28;19966;-40
2022/01/09 07:22:44;;;;;;;;;;;21.70;46.90;;;;;;5124809;28;19989;-41
2022/01/09 07:25:11;;;;;;;;;;;21.70;46.90;;;;;;5113854;28;20276;-41
2022/01/09 07:27:38;;;;;;;;;;;21.70;46.90;;;;;;5113318;28;20345;-42
2022/01/09 07:30:05;;;;;;;;;;;21.70;46.90;;;;;;5115290;28;20280;-41
2022/01/09 07:32:36;;;;;;;;;;;21.70;46.90;;;;;;5131322;28;19963;-42
2022/01/09 07:35:04;;;;;;;;;;;21.70;46.90;;;;;;5114274;28;19923;-43
2022/01/09 07:37:31;;;;;;;;;;;21.70;46.90;;;;;;5113176;28;20076;-40
2022/01/09 07:39:58;;;;;;;;;;;21.70;46.90;;;;;;5114075;28;19924;-42
2022/01/09 07:42:26;;;;;;;;;;;21.70;46.90;;;;;;5115186;28;20444;-41
2022/01/09 07:44:53;;;;;;;;;;;21.70;46.90;;;;;;5132185;28;19977;-42
2022/01/09 07:47:19;;;;;;;;;;;21.70;46.90;;;;;;5113319;28;19924;-41
2022/01/09 07:49:46;;;;;;;;;;;21.70;46.90;;;;;;5114051;28;19969;-42
2022/01/09 07:52:13;;;;;;;;;;;21.70;46.90;;;;;;5130662;28;19928;-41
2022/01/09 07:54:40;;;;;;;;;;;21.70;46.90;;;;;;5114964;28;19988;-42
2022/01/09 07:57:08;;;;;;;;;;;21.70;46.90;;;;;;5112713;28;19955;-42
2022/01/09 07:59:35;;;;;;;;;;;21.70;46.80;;;;;;5113942;28;19927;-42
2022/01/09 08:02:02;;;;;;;;;;;21.70;46.80;;;;;;5114138;28;19928;-42
2022/01/09 08:04:29;;;;;;;;;;;21.70;47.10;;;;;;5114756;28;20444;-42
2022/01/09 08:06:56;;;;;;;;;;;21.70;46.70;;;;;;5116480;28;19924;-41
2022/01/09 08:09:23;;;;;;;;;;;21.70;46.90;;;;;;5117832;27;19923;-41
2022/01/09 08:11:50;;;;;;;;;;;21.70;46.70;;;;;;5118307;27;20410;-42
2022/01/09 08:14:17;;;;;;;;;;;21.70;46.70;;;;;;5117422;27;19924;-40
2022/01/09 08:16:45;;;;;;;;;;;21.70;46.60;;;;;;5125901;27;19924;-49
2022/01/09 08:19:12;;;;;;;;;;;21.70;46.60;;;;;;5124812;27;20010;-41
2022/01/09 08:21:39;;;;;;;;;;;21.70;46.60;;;;;;5127965;27;19923;-42
2022/01/09 08:24:06;;;;;;;;;;;21.70;46.50;;;;;;5117018;27;19938;-42
2022/01/09 08:26:33;;;;;;;;;;;21.80;46.60;;;;;;5116848;27;20006;-46
2022/01/09 08:29:01;;;;;;;;;;;21.80;46.60;;;;;;5101393;27;19970;-46
2022/01/09 08:31:29;;;;;;;;;;;21.80;46.60;;;;;;5118647;27;20022;-45
2022/01/09 08:33:56;;;;;;;;;;;21.80;46.50;;;;;;5116838;27;19924;-49
2022/01/09 08:36:23;;;;;;;;;;;21.80;46.50;;;;;;5115884;27;20011;-51
2022/01/09 08:38:53;;;;;;;;;;;21.80;46.40;;;;;;5117462;27;19924;-47
2022/01/09 08:41:23;;;;;;;;;;;21.80;46.40;;;;;;5117030;27;19931;-46
2022/01/09 08:43:50;;;;;;;;;;;21.90;46.40;;;;;;5115540;28;19924;-44
2022/01/09 08:46:18;;;;;;;;;;;21.90;46.40;;;;;;5097942;28;19923;-42
2022/01/09 08:48:45;;;;;;;;;;;21.90;46.40;;;;;;5118350;27;19924;-46
2022/01/09 08:51:12;;;;;;;;;;;21.90;46.30;;;;;;5118238;27;19924;-44
2022/01/09 08:53:40;;;;;;;;;;;21.90;46.30;;;;;;5116790;28;19978;-42
2022/01/09 08:56:07;;;;;;;;;;;21.90;46.20;;;;;;5116588;27;20406;-44
2022/01/09 08:58:35;;;;;;;;;;;21.90;46.20;;;;;;5116670;27;20264;-46
2022/01/09 09:01:05;;;;;;;;;;;21.90;46.20;;;;;;5118897;27;19930;-40
2022/01/09 09:03:42;;;;;;;;;;;22.00;46.30;;;;;;5114486;28;19946;-41
2022/01/09 09:06:14;;;;;;;;;;;22.00;46.30;;;;;;5115391;28;19946;-42
2022/01/09 09:08:46;;;;;;;;;;;22.00;46.30;;;;;;5127110;27;19923;-47
2022/01/09 09:11:30;;;;;;;;;;;22.00;46.20;;;;;;5119250;27;20001;-43
2022/01/09 09:13:59;;;;;;;;;;;22.00;46.30;;;;;;5118349;27;19931;-45
2022/01/09 09:16:30;;;;;;;;;;;22.00;46.40;;;;;;5113892;28;20290;-42
2022/01/09 09:18:57;;;;;;;;;;;22.00;46.70;;;;;;5126207;27;19931;-41
2022/01/09 09:21:24;;;;;;;;;;;22.10;46.70;;;;;;5133110;27;19953;-43
2022/01/09 09:23:51;;;;;;;;;;;22.10;46.60;;;;;;5123537;27;19924;-44
2022/01/09 09:26:18;;;;;;;;;;;22.10;46.60;;;;;;5118393;27;19927;-44
2022/01/09 09:28:45;;;;;;;;;;;22.10;46.60;;;;;;5116403;27;20320;-42
2022/01/09 09:31:13;;;;;;;;;;;22.10;46.50;;;;;;5116947;27;19924;-41
2022/01/09 09:33:41;;;;;;;;;;;22.20;46.50;;;;;;5117463;27;20325;-40
2022/01/09 09:36:08;;;;;;;;;;;22.20;46.50;;;;;;5116310;27;19924;-43
2022/01/09 09:38:35;;;;;;;;;;;22.20;46.50;;;;;;5115857;27;19931;-43
2022/01/09 09:41:02;;;;;;;;;;;22.20;46.50;;;;;;5119826;27;19931;-44
2022/01/09 09:43:29;;;;;;;;;;;22.20;46.50;;;;;;5132240;27;19927;-44
2022/01/09 09:45:56;;;;;;;;;;;22.20;46.40;;;;;;5114832;28;19996;-43
2022/01/09 09:48:23;;;;;;;;;;;22.20;46.40;;;;;;5114433;28;19923;-42
2022/01/09 09:50:50;;;;;;;;;;;22.20;46.30;;;;;;5116341;27;20314;-43
2022/01/09 09:53:17;;;;;;;;;;;22.30;46.40;;;;;;5114278;28;19932;-41
2022/01/09 09:55:46;;;;;;;;;;;22.30;46.30;;;;;;5114739;28;19924;-44
2022/01/09 09:58:13;;;;;;;;;;;22.30;46.30;;;;;;5115796;27;19989;-43
2022/01/09 10:00:40;;;;;;;;;;;22.30;46.30;;;;;;5132651;27;20350;-44
2022/01/09 10:03:09;;;;;;;;;;;22.30;46.30;;;;;;5130887;27;19930;-42
2022/01/09 10:05:40;;;;;;;;;;;22.30;46.30;;;;;;5115001;27;19930;-43
2022/01/09 10:08:15;;;;;;;;;;;22.30;46.30;;;;;;5115369;27;19924;-41
2022/01/09 10:10:43;;;;;;;;;;;22.40;46.30;;;;;;5098629;28;19930;-43
2022/01/09 10:13:19;;;;;;;;;;;22.40;46.30;;;;;;5129417;27;20408;-41
2022/01/09 10:15:50;;;;;;;;;;;22.40;46.20;;;;;;5117045;27;19963;-43
2022/01/09 10:18:53;;;;;;;;;;;22.40;46.20;;;;;;5112909;27;19931;-42
2022/01/09 10:21:26;;;;;;;;;;;22.40;46.10;;;;;;5010462;28;20314;-43
2022/01/09 10:24:01;;;;;;;;;;;22.50;46.10;;;;;;5010088;28;19926;-43
2022/01/09 10:26:29;;;;;;;;;;;22.50;46.10;;;;;;5009767;28;19980;-40
2022/01/09 10:28:59;;;;;;;;;;;22.50;46.10;;;;;;5010354;28;19925;-40
2022/01/09 10:31:28;;;;;;;;;;;22.50;46.10;;;;;;5009833;28;19925;-39
2022/01/09 10:34:01;;;;;;;;;;;22.50;46.10;;;;;;5012643;28;19933;-40
2022/01/09 10:36:32;;;;;;;;;;;22.50;46.10;;;;;;5009917;28;19933;-43
2022/01/09 10:39:19;;;;;;;;;;;22.50;46.00;;;;;;5011006;28;19926;-43
2022/01/09 10:41:59;;;;;;;;;;;22.50;46.00;;;;;;5009046;28;19972;-43
2022/01/09 10:44:31;;;;;;;;;;;22.60;46.10;;;;;;5010169;28;20000;-40
2022/01/09 10:47:01;;;;;;;;;;;22.60;46.10;;;;;;5010024;28;19965;-40
2022/01/09 10:49:47;;;;;;;;;;;22.60;46.10;;;;;;5010002;28;19925;-41
2022/01/09 10:52:17;;;;;;;;;;;22.60;46.10;;;;;;5010745;28;19934;-40
2022/01/09 10:54:46;;;;;;;;;;;22.60;46.10;;;;;;5029446;28;20382;-44
2022/01/09 10:57:20;;;;;;;;;;;22.60;46.10;;;;;;5094269;28;20341;-43
2022/01/09 10:59:47;;;;;;;;;;;22.60;46.10;;;;;;5092978;28;20485;-40
2022/01/09 11:02:15;;;;;;;;;;;22.60;46.00;;;;;;5093618;28;19930;-42
2022/01/09 11:04:42;;;;;;;;;;;22.60;46.60;;;;;;5093788;28;19924;-40
2022/01/09 11:07:10;;;;;;;;;;;22.60;46.00;;;;;;5108444;28;20329;-42
2022/01/09 11:09:38;;;;;;;;;;;22.60;46.00;;;;;;5097072;28;19928;-42
2022/01/09 11:12:09;;;;;;;;;;;22.60;46.00;;;;;;5092129;28;20451;-41
2022/01/09 11:14:40;;;;;;;;;;;22.60;46.00;;;;;;5076397;28;20022;-43
2022/01/09 11:17:08;;;;;;;;;;;22.60;46.00;;;;;;5093746;28;19970;-39
2022/01/09 11:19:35;;;;;;;;;;;22.60;46.00;;;;;;5118567;28;19928;-44
2022/01/09 11:22:05;;;;;;;;;;;22.60;46.00;;;;;;5129663;28;19929;-47
2022/01/09 11:24:38;;;;;;;;;;;22.60;46.10;;;;;;5120927;28;19923;-46
2022/01/09 11:27:27;;;;;;;;;;;22.60;46.10;;;;;;5113980;28;19927;-43
2022/01/09 11:30:17;;;;;;;;;;;22.60;46.10;;;;;;5115218;28;19931;-46
2022/01/09 11:33:04;;;;;;;;;;;22.60;46.10;;;;;;5115443;28;19924;-44
2022/01/09 11:35:38;;;;;;;;;;;22.60;46.10;;;;;;5114178;28;19928;-46
2022/01/09 11:38:12;;;;;;;;;;;22.60;46.10;;;;;;5113188;28;20348;-41
2022/01/09 11:40:39;;;;;;;;;;;22.60;46.10;;;;;;5116678;28;19924;-44
2022/01/09 11:43:14;;;;;;;;;;;22.60;46.10;;;;;;5116674;28;19923;-48
2022/01/09 11:45:47;;;;;;;;;;;22.60;46.10;;;;;;5117999;27;19928;-39
2022/01/09 11:48:20;;;;;;;;;;;22.60;46.10;;;;;;5132441;27;19966;-42
2022/01/09 11:51:05;;;;;;;;;;;22.60;46.10;;;;;;5121406;27;19967;-43
2022/01/09 11:53:50;;;;;;;;;;;22.60;46.10;;;;;;5117680;27;20022;-42
2022/01/09 11:56:37;;;;;;;;;;;22.60;46.80;;;;;;5117810;27;20006;-38
2022/01/09 11:59:18;;;;;;;;;;;22.60;46.20;;;;;;5116585;28;19935;-39
2022/01/09 12:01:46;;;;;;;;;;;22.60;46.30;;;;;;5116436;28;19974;-43
2022/01/09 12:04:31;;;;;;;;;;;22.60;46.30;;;;;;5116421;27;20307;-40
2022/01/09 12:07:03;;;;;;;;;;;22.60;46.30;;;;;;5117527;27;20322;-45
2022/01/09 12:09:41;;;;;;;;;;;22.70;46.50;;;;;;5134421;27;20388;-42
2022/01/09 12:12:10;;;;;;;;;;;22.60;46.40;;;;;;5117566;27;19923;-42
2022/01/09 12:17:26;;;;;;;;;;;22.70;46.50;;;;;;5116369;28;20027;-40
2022/01/09 12:20:08;;;;;;;;;;;22.70;46.50;;;;;;5117027;27;20419;-41
2022/01/09 12:22:51;;;;;;;;;;;22.70;46.50;;;;;;5116908;27;20014;-40
2022/01/09 12:27:56;;;;;;;;;;;22.70;46.50;;;;;;5116953;27;19924;-42
2022/01/09 12:30:51;;;;;;;;;;;22.70;46.50;;;;;;5117802;27;19936;-45
2022/01/09 12:33:18;;;;;;;;;;;22.70;46.50;;;;;;5127351;27;20397;-41
2022/01/09 12:35:54;;;;;;;;;;;22.70;46.50;;;;;;5122283;27;19948;-44
2022/01/09 12:38:23;;;;;;;;;;;22.70;46.50;;;;;;5129734;27;19924;-43
2022/01/09 12:40:59;;;;;;;;;;;22.70;46.50;;;;;;5097638;28;20395;-42
2022/01/09 12:43:27;;;;;;;;;;;22.70;46.50;;;;;;5117204;27;20295;-41
2022/01/09 12:45:54;;;;;;;;;;;22.70;46.50;;;;;;5116957;27;19923;-39
2022/01/09 12:48:27;;;;;;;;;;;22.70;46.50;;;;;;5115181;28;19931;-39
2022/01/09 12:50:56;;;;;;;;;;;22.70;46.50;;;;;;5115504;28;19927;-44
2022/01/09 12:53:28;;;;;;;;;;;22.80;46.50;;;;;;5116367;27;19923;-40
2022/01/09 12:55:59;;;;;;;;;;;22.80;46.50;;;;;;5117740;27;19979;-39
2022/01/09 12:58:28;;;;;;;;;;;22.80;46.50;;;;;;5117486;27;20390;-39
2022/01/09 13:00:56;;;;;;;;;;;22.80;46.50;;;;;;5116998;27;20034;-39
2022/01/09 13:03:26;;;;;;;;;;;22.80;46.50;;;;;;5116015;27;19931;-39
2022/01/09 13:06:00;;;;;;;;;;;22.80;46.50;;;;;;5116588;27;19924;-40
2022/01/09 13:08:27;;;;;;;;;;;22.80;46.50;;;;;;5115975;27;19959;-40
2022/01/09 13:10:56;;;;;;;;;;;22.80;46.50;;;;;;5115330;28;20295;-40
2022/01/09 13:13:23;;;;;;;;;;;22.80;46.50;;;;;;5115823;28;20335;-40
2022/01/09 13:15:51;;;;;;;;;;;22.80;46.60;;;;;;5116688;27;19923;-39
2022/01/09 13:18:33;;;;;;;;;;;22.80;46.60;;;;;;5111462;28;19931;-41
2022/01/09 13:21:20;;;;;;;;;;;22.80;46.60;;;;;;5095040;28;19963;-39
2022/01/09 13:23:59;;;;;;;;;;;22.80;46.70;;;;;;5094691;28;19947;-41
2022/01/09 13:26:37;;;;;;;;;;;22.80;46.70;;;;;;5096066;28;20426;-41
2022/01/09 13:29:05;;;;;;;;;;;22.80;46.70;;;;;;5103592;28;20796;-39
2022/01/09 13:31:33;;;;;;;;;;;22.80;46.70;;;;;;5104222;28;20377;-40
2022/01/09 13:34:06;;;;;;;;;;;22.80;46.70;;;;;;5103470;28;19924;-40
2022/01/09 13:36:36;;;;;;;;;;;22.80;46.70;;;;;;5104189;28;19955;-39
2022/01/09 13:39:04;;;;;;;;;;;22.80;46.70;;;;;;5103953;28;19979;-41
2022/01/09 13:41:36;;;;;;;;;;;22.80;46.70;;;;;;5085727;28;20026;-42
2022/01/09 13:44:04;;;;;;;;;;;22.80;46.70;;;;;;5095715;28;19974;-43
2022/01/09 13:46:33;;;;;;;;;;;22.80;46.70;;;;;;5077381;28;19930;-40
2022/01/09 13:49:00;;;;;;;;;;;22.80;46.70;;;;;;5110849;28;20383;-40
2022/01/09 13:51:37;;;;;;;;;;;22.80;46.80;;;;;;5078871;28;20287;-41
2022/01/09 13:54:06;;;;;;;;;;;22.80;46.80;;;;;;5093597;28;19932;-40
2022/01/09 13:56:33;;;;;;;;;;;22.80;46.80;;;;;;5077197;28;20342;-40
2022/01/09 13:59:00;;;;;;;;;;;22.70;46.70;;;;;;5094930;28;19924;-40
2022/01/09 14:01:54;;;;;;;;;;;22.80;46.80;;;;;;5094256;28;19924;-39
2022/01/09 14:04:21;;;;;;;;;;;22.80;46.80;;;;;;5090564;28;19924;-41
2022/01/09 14:06:57;;;;;;;;;;;22.80;46.80;;;;;;5094730;28;19932;-42
2022/01/09 14:09:26;;;;;;;;;;;22.80;46.90;;;;;;5093372;28;19924;-42
2022/01/09 14:11:57;;;;;;;;;;;22.80;46.90;;;;;;5095592;28;20011;-39
2022/01/09 14:14:28;;;;;;;;;;;22.70;46.90;;;;;;5093298;28;19923;-44
2022/01/09 14:16:55;;;;;;;;;;;22.70;47.00;;;;;;5094427;28;19974;-42
2022/01/09 14:19:22;;;;;;;;;;;22.70;47.00;;;;;;5107563;28;19928;-40
2022/01/09 14:21:57;;;;;;;;;;;22.70;47.00;;;;;;5113845;28;20322;-46
2022/01/09 14:24:24;;;;;;;;;;;22.70;47.00;;;;;;5115774;27;19939;-47
2022/01/09 14:26:57;;;;;;;;;;;22.70;47.00;;;;;;5125382;27;19946;-43
2022/01/09 14:29:35;;;;;;;;;;;22.70;47.10;;;;;;5122865;27;19953;-46
2022/01/09 14:32:02;;;;;;;;;;;22.70;47.10;;;;;;5116193;27;19924;-45
2022/01/09 14:34:30;;;;;;;;;;;22.70;47.20;;;;;;5124258;27;20362;-46
2022/01/09 14:36:57;;;;;;;;;;;22.70;47.10;;;;;;5123458;27;19931;-43